sensor_id;sensor_type;location;lat;lon;timestamp;P1;durP1;ratioP1;P2;durP2;ratioP2
71869;SDS011;59739;47.696;11.746;2022-09-01T00:01:35;12.68;;;9.77;;
71869;SDS011;59739;47.696;11.746;2022-09-01T00:04:05;11.05;;;9.30;;
71869;SDS011;59739;47.696;11.746;2022-09-01T00:06:34;10.02;;;8.30;;
71869;SDS011;59739;47.696;11.746;2022-09-01T00:09:03;10.48;;;7.60;;
71869;SDS011;59739;47.696;11.746;2022-09-01T00:11:32;9.27;;;7.38;;
71869;SDS011;59739;47.696;11.746;2022-09-01T00:13:59;8.05;;;6.68;;
71869;SDS011;59739;47.696;11.746;2022-09-01T00:16:27;8.45;;;7.38;;
71869;SDS011;59739;47.696;11.746;2022-09-01T00:18:55;9.23;;;7.57;;
71869;SDS011;59739;47.696;11.746;2022-09-01T00:21:26;11.82;;;8.00;;
71869;SDS011;59739;47.696;11.746;2022-09-01T00:23:56;11.32;;;8.63;;
71869;SDS011;59739;47.696;11.746;2022-09-01T00:26:23;11.95;;;9.68;;
71869;SDS011;59739;47.696;11.746;2022-09-01T00:28:49;13.45;;;10.90;;
71869;SDS011;59739;47.696;11.746;2022-09-01T00:31:15;14.15;;;10.93;;
71869;SDS011;59739;47.696;11.746;2022-09-01T00:33:44;13.15;;;10.80;;
71869;SDS011;59739;47.696;11.746;2022-09-01T00:36:12;14.05;;;11.27;;
71869;SDS011;59739;47.696;11.746;2022-09-01T00:38:39;14.60;;;11.65;;
71869;SDS011;59739;47.696;11.746;2022-09-01T00:41:05;13.27;;;11.63;;
71869;SDS011;59739;47.696;11.746;2022-09-01T00:46:14;16.45;;;12.50;;
71869;SDS011;59739;47.696;11.746;2022-09-01T00:48:52;14.05;;;11.60;;
71869;SDS011;59739;47.696;11.746;2022-09-01T00:51:42;15.98;;;12.13;;
71869;SDS011;59739;47.696;11.746;2022-09-01T00:54:17;15.25;;;11.40;;
71869;SDS011;59739;47.696;11.746;2022-09-01T00:56:50;14.68;;;11.38;;
71869;SDS011;59739;47.696;11.746;2022-09-01T00:59:17;16.00;;;12.13;;
71869;SDS011;59739;47.696;11.746;2022-09-01T01:01:46;15.35;;;10.93;;
71869;SDS011;59739;47.696;11.746;2022-09-01T01:04:13;15.20;;;11.48;;
71869;SDS011;59739;47.696;11.746;2022-09-01T01:06:40;16.67;;;12.10;;
71869;SDS011;59739;47.696;11.746;2022-09-01T01:09:10;12.60;;;10.32;;
71869;SDS011;59739;47.696;11.746;2022-09-01T01:11:36;12.82;;;9.85;;
71869;SDS011;59739;47.696;11.746;2022-09-01T01:14:06;13.20;;;10.77;;
71869;SDS011;59739;47.696;11.746;2022-09-01T01:16:40;13.73;;;11.10;;
71869;SDS011;59739;47.696;11.746;2022-09-01T01:22:29;12.45;;;10.55;;
71869;SDS011;59739;47.696;11.746;2022-09-01T01:28:14;14.50;;;11.23;;
71869;SDS011;59739;47.696;11.746;2022-09-01T01:30:56;14.82;;;10.10;;
71869;SDS011;59739;47.696;11.746;2022-09-01T01:33:38;14.43;;;10.38;;
71869;SDS011;59739;47.696;11.746;2022-09-01T01:36:25;10.95;;;9.32;;
71869;SDS011;59739;47.696;11.746;2022-09-01T01:38:59;11.90;;;9.50;;
71869;SDS011;59739;47.696;11.746;2022-09-01T01:41:29;10.88;;;9.18;;
71869;SDS011;59739;47.696;11.746;2022-09-01T01:43:58;11.70;;;9.40;;
71869;SDS011;59739;47.696;11.746;2022-09-01T01:46:28;13.35;;;9.73;;
71869;SDS011;59739;47.696;11.746;2022-09-01T01:48:56;10.05;;;8.43;;
71869;SDS011;59739;47.696;11.746;2022-09-01T01:51:22;10.77;;;9.02;;
71869;SDS011;59739;47.696;11.746;2022-09-01T01:53:53;9.10;;;8.05;;
71869;SDS011;59739;47.696;11.746;2022-09-01T01:56:20;10.85;;;8.63;;
71869;SDS011;59739;47.696;11.746;2022-09-01T01:58:54;11.50;;;9.57;;
71869;SDS011;59739;47.696;11.746;2022-09-01T02:01:23;13.18;;;9.32;;
71869;SDS011;59739;47.696;11.746;2022-09-01T02:03:53;12.13;;;9.00;;
71869;SDS011;59739;47.696;11.746;2022-09-01T02:06:22;11.60;;;9.48;;
71869;SDS011;59739;47.696;11.746;2022-09-01T02:08:54;10.48;;;8.68;;
71869;SDS011;59739;47.696;11.746;2022-09-01T02:11:22;12.60;;;9.43;;
71869;SDS011;59739;47.696;11.746;2022-09-01T02:13:53;12.27;;;10.53;;
71869;SDS011;59739;47.696;11.746;2022-09-01T02:16:22;9.80;;;8.65;;
71869;SDS011;59739;47.696;11.746;2022-09-01T02:18:54;10.85;;;8.52;;
71869;SDS011;59739;47.696;11.746;2022-09-01T02:21:22;10.23;;;8.60;;
71869;SDS011;59739;47.696;11.746;2022-09-01T02:23:50;11.95;;;8.75;;
71869;SDS011;59739;47.696;11.746;2022-09-01T02:26:37;11.00;;;8.75;;
71869;SDS011;59739;47.696;11.746;2022-09-01T02:29:08;9.80;;;8.50;;
71869;SDS011;59739;47.696;11.746;2022-09-01T02:31:42;9.48;;;8.02;;
71869;SDS011;59739;47.696;11.746;2022-09-01T02:34:10;10.55;;;8.43;;
71869;SDS011;59739;47.696;11.746;2022-09-01T02:36:39;11.05;;;8.15;;
71869;SDS011;59739;47.696;11.746;2022-09-01T02:39:27;11.98;;;9.45;;
71869;SDS011;59739;47.696;11.746;2022-09-01T02:41:59;10.77;;;9.05;;
71869;SDS011;59739;47.696;11.746;2022-09-01T02:44:27;10.57;;;8.95;;
71869;SDS011;59739;47.696;11.746;2022-09-01T02:46:55;11.18;;;9.75;;
71869;SDS011;59739;47.696;11.746;2022-09-01T02:49:23;10.98;;;8.93;;
71869;SDS011;59739;47.696;11.746;2022-09-01T02:51:54;8.73;;;7.40;;
71869;SDS011;59739;47.696;11.746;2022-09-01T02:54:25;8.20;;;7.35;;
71869;SDS011;59739;47.696;11.746;2022-09-01T02:56:52;10.45;;;8.27;;
71869;SDS011;59739;47.696;11.746;2022-09-01T02:59:22;8.98;;;7.75;;
71869;SDS011;59739;47.696;11.746;2022-09-01T03:01:51;9.07;;;7.38;;
71869;SDS011;59739;47.696;11.746;2022-09-01T03:04:18;8.80;;;7.18;;
71869;SDS011;59739;47.696;11.746;2022-09-01T03:06:46;7.53;;;6.72;;
71869;SDS011;59739;47.696;11.746;2022-09-01T03:09:15;9.48;;;7.90;;
71869;SDS011;59739;47.696;11.746;2022-09-01T03:11:44;9.10;;;6.68;;
71869;SDS011;59739;47.696;11.746;2022-09-01T03:14:13;8.95;;;6.15;;
71869;SDS011;59739;47.696;11.746;2022-09-01T03:16:41;6.07;;;5.32;;
71869;SDS011;59739;47.696;11.746;2022-09-01T03:19:07;6.90;;;6.20;;
71869;SDS011;59739;47.696;11.746;2022-09-01T03:21:38;8.63;;;7.07;;
71869;SDS011;59739;47.696;11.746;2022-09-01T03:24:10;6.90;;;6.20;;
71869;SDS011;59739;47.696;11.746;2022-09-01T03:26:40;8.15;;;6.38;;
71869;SDS011;59739;47.696;11.746;2022-09-01T03:29:07;6.18;;;5.53;;
71869;SDS011;59739;47.696;11.746;2022-09-01T03:31:34;6.15;;;5.15;;
71869;SDS011;59739;47.696;11.746;2022-09-01T03:34:01;6.25;;;5.55;;
71869;SDS011;59739;47.696;11.746;2022-09-01T03:36:33;6.40;;;5.80;;
71869;SDS011;59739;47.696;11.746;2022-09-01T03:39:00;5.10;;;4.60;;
71869;SDS011;59739;47.696;11.746;2022-09-01T03:41:29;6.28;;;5.43;;
71869;SDS011;59739;47.696;11.746;2022-09-01T03:43:55;5.18;;;4.38;;
71869;SDS011;59739;47.696;11.746;2022-09-01T03:46:25;5.25;;;4.75;;
71869;SDS011;59739;47.696;11.746;2022-09-01T03:48:55;4.97;;;4.47;;
71869;SDS011;59739;47.696;11.746;2022-09-01T03:51:26;5.22;;;4.70;;
71869;SDS011;59739;47.696;11.746;2022-09-01T03:53:55;6.43;;;5.05;;
71869;SDS011;59739;47.696;11.746;2022-09-01T03:56:24;6.28;;;5.68;;
71869;SDS011;59739;47.696;11.746;2022-09-01T03:58:55;6.50;;;5.07;;
71869;SDS011;59739;47.696;11.746;2022-09-01T04:01:24;5.70;;;5.00;;
71869;SDS011;59739;47.696;11.746;2022-09-01T04:03:52;7.90;;;4.90;;
71869;SDS011;59739;47.696;11.746;2022-09-01T04:06:22;5.35;;;4.63;;
71869;SDS011;59739;47.696;11.746;2022-09-01T04:08:50;7.38;;;5.45;;
71869;SDS011;59739;47.696;11.746;2022-09-01T04:11:27;6.53;;;5.10;;
71869;SDS011;59739;47.696;11.746;2022-09-01T04:13:54;6.60;;;5.40;;
71869;SDS011;59739;47.696;11.746;2022-09-01T04:16:22;6.60;;;5.57;;
71869;SDS011;59739;47.696;11.746;2022-09-01T04:19:10;8.02;;;5.97;;
71869;SDS011;59739;47.696;11.746;2022-09-01T04:21:47;6.88;;;5.28;;
71869;SDS011;59739;47.696;11.746;2022-09-01T04:24:16;5.85;;;5.25;;
71869;SDS011;59739;47.696;11.746;2022-09-01T04:26:45;6.45;;;5.18;;
71869;SDS011;59739;47.696;11.746;2022-09-01T04:29:13;7.40;;;6.22;;
71869;SDS011;59739;47.696;11.746;2022-09-01T04:31:44;6.57;;;5.67;;
71869;SDS011;59739;47.696;11.746;2022-09-01T04:34:17;5.90;;;5.30;;
71869;SDS011;59739;47.696;11.746;2022-09-01T04:36:43;6.63;;;5.93;;
71869;SDS011;59739;47.696;11.746;2022-09-01T04:39:11;6.88;;;5.00;;
71869;SDS011;59739;47.696;11.746;2022-09-01T04:41:42;7.10;;;5.70;;
71869;SDS011;59739;47.696;11.746;2022-09-01T04:44:11;6.53;;;5.15;;
71869;SDS011;59739;47.696;11.746;2022-09-01T04:46:42;7.00;;;5.50;;
71869;SDS011;59739;47.696;11.746;2022-09-01T04:49:16;6.20;;;4.88;;
71869;SDS011;59739;47.696;11.746;2022-09-01T04:51:47;5.55;;;5.05;;
71869;SDS011;59739;47.696;11.746;2022-09-01T04:54:17;6.47;;;5.10;;
71869;SDS011;59739;47.696;11.746;2022-09-01T04:56:46;7.45;;;5.65;;
71869;SDS011;59739;47.696;11.746;2022-09-01T04:59:15;5.75;;;5.25;;
71869;SDS011;59739;47.696;11.746;2022-09-01T05:01:56;6.25;;;5.65;;
71869;SDS011;59739;47.696;11.746;2022-09-01T05:04:32;6.03;;;5.43;;
71869;SDS011;59739;47.696;11.746;2022-09-01T05:06:59;6.90;;;5.85;;
71869;SDS011;59739;47.696;11.746;2022-09-01T05:09:44;6.63;;;5.88;;
71869;SDS011;59739;47.696;11.746;2022-09-01T05:12:26;9.13;;;6.63;;
71869;SDS011;59739;47.696;11.746;2022-09-01T05:14:53;8.13;;;7.10;;
71869;SDS011;59739;47.696;11.746;2022-09-01T05:17:20;7.90;;;6.40;;
71869;SDS011;59739;47.696;11.746;2022-09-01T05:19:47;6.75;;;5.85;;
71869;SDS011;59739;47.696;11.746;2022-09-01T05:22:14;8.02;;;6.22;;
71869;SDS011;59739;47.696;11.746;2022-09-01T05:24:49;6.97;;;6.28;;
71869;SDS011;59739;47.696;11.746;2022-09-01T05:27:16;8.55;;;6.30;;
71869;SDS011;59739;47.696;11.746;2022-09-01T05:29:43;9.00;;;6.55;;
71869;SDS011;59739;47.696;11.746;2022-09-01T05:32:11;8.52;;;6.55;;
71869;SDS011;59739;47.696;11.746;2022-09-01T05:34:38;7.50;;;6.80;;
71869;SDS011;59739;47.696;11.746;2022-09-01T05:37:06;9.40;;;7.03;;
71869;SDS011;59739;47.696;11.746;2022-09-01T05:39:35;7.32;;;6.43;;
71869;SDS011;59739;47.696;11.746;2022-09-01T05:42:03;8.85;;;7.63;;
71869;SDS011;59739;47.696;11.746;2022-09-01T05:44:34;9.57;;;7.57;;
71869;SDS011;59739;47.696;11.746;2022-09-01T05:47:08;9.15;;;8.00;;
71869;SDS011;59739;47.696;11.746;2022-09-01T05:49:36;9.13;;;8.13;;
71869;SDS011;59739;47.696;11.746;2022-09-01T05:52:05;10.35;;;8.18;;
71869;SDS011;59739;47.696;11.746;2022-09-01T05:54:33;12.00;;;8.45;;
71869;SDS011;59739;47.696;11.746;2022-09-01T05:57:01;10.20;;;8.55;;
71869;SDS011;59739;47.696;11.746;2022-09-01T05:59:28;8.90;;;7.90;;
71869;SDS011;59739;47.696;11.746;2022-09-01T06:02:10;11.05;;;8.50;;
71869;SDS011;59739;47.696;11.746;2022-09-01T06:04:36;9.63;;;8.63;;
71869;SDS011;59739;47.696;11.746;2022-09-01T06:07:13;9.30;;;8.30;;
71869;SDS011;59739;47.696;11.746;2022-09-01T06:09:45;9.60;;;8.50;;
71869;SDS011;59739;47.696;11.746;2022-09-01T06:12:15;11.75;;;8.95;;
71869;SDS011;59739;47.696;11.746;2022-09-01T06:14:46;9.50;;;8.50;;
71869;SDS011;59739;47.696;11.746;2022-09-01T06:17:15;9.90;;;8.70;;
71869;SDS011;59739;47.696;11.746;2022-09-01T06:19:46;9.95;;;8.95;;
71869;SDS011;59739;47.696;11.746;2022-09-01T06:22:13;11.00;;;8.52;;
71869;SDS011;59739;47.696;11.746;2022-09-01T06:24:40;8.95;;;7.95;;
71869;SDS011;59739;47.696;11.746;2022-09-01T06:27:07;9.02;;;8.07;;
71869;SDS011;59739;47.696;11.746;2022-09-01T06:29:34;7.55;;;6.35;;
71869;SDS011;59739;47.696;11.746;2022-09-01T06:32:06;7.30;;;6.60;;
71869;SDS011;59739;47.696;11.746;2022-09-01T06:34:38;8.38;;;7.07;;
71869;SDS011;59739;47.696;11.746;2022-09-01T06:37:09;7.47;;;6.45;;
71869;SDS011;59739;47.696;11.746;2022-09-01T06:39:37;6.93;;;6.22;;
71869;SDS011;59739;47.696;11.746;2022-09-01T06:42:04;7.55;;;6.22;;
71869;SDS011;59739;47.696;11.746;2022-09-01T06:44:41;6.60;;;5.90;;
71869;SDS011;59739;47.696;11.746;2022-09-01T06:47:08;5.95;;;5.35;;
71869;SDS011;59739;47.696;11.746;2022-09-01T06:49:34;7.60;;;6.50;;
71869;SDS011;59739;47.696;11.746;2022-09-01T06:52:07;6.97;;;6.00;;
71869;SDS011;59739;47.696;11.746;2022-09-01T06:54:35;5.85;;;5.25;;
71869;SDS011;59739;47.696;11.746;2022-09-01T06:57:04;6.70;;;5.63;;
71869;SDS011;59739;47.696;11.746;2022-09-01T06:59:31;6.05;;;5.53;;
71869;SDS011;59739;47.696;11.746;2022-09-01T07:01:58;5.65;;;5.07;;
71869;SDS011;59739;47.696;11.746;2022-09-01T07:04:34;5.82;;;5.22;;
71869;SDS011;59739;47.696;11.746;2022-09-01T07:07:03;5.43;;;4.88;;
71869;SDS011;59739;47.696;11.746;2022-09-01T07:09:56;5.60;;;4.90;;
71869;SDS011;59739;47.696;11.746;2022-09-01T07:12:29;5.38;;;4.88;;
71869;SDS011;59739;47.696;11.746;2022-09-01T07:14:56;6.10;;;5.00;;
71869;SDS011;59739;47.696;11.746;2022-09-01T07:17:24;5.05;;;4.55;;
71869;SDS011;59739;47.696;11.746;2022-09-01T07:19:51;5.60;;;4.95;;
71869;SDS011;59739;47.696;11.746;2022-09-01T07:22:18;5.10;;;4.65;;
71869;SDS011;59739;47.696;11.746;2022-09-01T07:24:46;6.15;;;4.57;;
71869;SDS011;59739;47.696;11.746;2022-09-01T07:27:38;4.88;;;4.38;;
71869;SDS011;59739;47.696;11.746;2022-09-01T07:30:09;6.10;;;5.18;;
71869;SDS011;59739;47.696;11.746;2022-09-01T07:32:36;4.55;;;4.15;;
71869;SDS011;59739;47.696;11.746;2022-09-01T07:35:04;4.90;;;4.40;;
71869;SDS011;59739;47.696;11.746;2022-09-01T07:37:33;4.75;;;4.07;;
71869;SDS011;59739;47.696;11.746;2022-09-01T07:40:03;5.05;;;4.55;;
71869;SDS011;59739;47.696;11.746;2022-09-01T07:42:56;6.40;;;4.25;;
71869;SDS011;59739;47.696;11.746;2022-09-01T07:45:25;4.47;;;4.07;;
71869;SDS011;59739;47.696;11.746;2022-09-01T07:47:55;4.70;;;4.00;;
71869;SDS011;59739;47.696;11.746;2022-09-01T07:50:34;3.85;;;3.42;;
71869;SDS011;59739;47.696;11.746;2022-09-01T07:53:01;4.35;;;3.67;;
71869;SDS011;59739;47.696;11.746;2022-09-01T07:55:29;4.00;;;3.53;;
71869;SDS011;59739;47.696;11.746;2022-09-01T07:57:56;7.15;;;4.43;;
71869;SDS011;59739;47.696;11.746;2022-09-01T08:00:23;4.15;;;3.75;;
71869;SDS011;59739;47.696;11.746;2022-09-01T08:02:56;4.07;;;3.67;;
71869;SDS011;59739;47.696;11.746;2022-09-01T08:05:23;4.68;;;4.28;;
71869;SDS011;59739;47.696;11.746;2022-09-01T08:07:51;5.00;;;3.90;;
71869;SDS011;59739;47.696;11.746;2022-09-01T08:10:22;4.03;;;3.70;;
71869;SDS011;59739;47.696;11.746;2022-09-01T08:12:48;4.50;;;4.10;;
71869;SDS011;59739;47.696;11.746;2022-09-01T08:15:14;4.38;;;3.70;;
71869;SDS011;59739;47.696;11.746;2022-09-01T08:17:43;4.47;;;4.15;;
71869;SDS011;59739;47.696;11.746;2022-09-01T08:20:12;4.68;;;4.10;;
71869;SDS011;59739;47.696;11.746;2022-09-01T08:22:50;4.07;;;3.70;;
71869;SDS011;59739;47.696;11.746;2022-09-01T08:25:22;3.90;;;3.50;;
71869;SDS011;59739;47.696;11.746;2022-09-01T08:27:51;4.10;;;3.70;;
71869;SDS011;59739;47.696;11.746;2022-09-01T08:30:19;3.75;;;3.45;;
71869;SDS011;59739;47.696;11.746;2022-09-01T08:32:45;4.82;;;3.60;;
71869;SDS011;59739;47.696;11.746;2022-09-01T08:35:12;5.88;;;3.97;;
71869;SDS011;59739;47.696;11.746;2022-09-01T08:37:40;4.40;;;4.00;;
71869;SDS011;59739;47.696;11.746;2022-09-01T08:40:11;4.28;;;3.88;;
71869;SDS011;59739;47.696;11.746;2022-09-01T08:48:17;3.63;;;3.33;;
71869;SDS011;59739;47.696;11.746;2022-09-01T08:50:49;3.95;;;3.50;;
71869;SDS011;59739;47.696;11.746;2022-09-01T08:53:58;4.60;;;4.20;;
71869;SDS011;59739;47.696;11.746;2022-09-01T08:56:42;4.95;;;4.00;;
71869;SDS011;59739;47.696;11.746;2022-09-01T08:59:10;4.57;;;3.95;;
71869;SDS011;59739;47.696;11.746;2022-09-01T09:05:19;4.30;;;3.90;;
71869;SDS011;59739;47.696;11.746;2022-09-01T09:10:59;5.05;;;4.13;;
71869;SDS011;59739;47.696;11.746;2022-09-01T09:16:23;4.55;;;3.35;;
71869;SDS011;59739;47.696;11.746;2022-09-01T09:19:02;3.40;;;2.80;;
71869;SDS011;59739;47.696;11.746;2022-09-01T09:21:40;3.63;;;3.08;;
71869;SDS011;59739;47.696;11.746;2022-09-01T09:24:15;3.20;;;2.80;;
71869;SDS011;59739;47.696;11.746;2022-09-01T09:27:29;4.05;;;3.65;;
71869;SDS011;59739;47.696;11.746;2022-09-01T09:30:06;3.22;;;2.72;;
71869;SDS011;59739;47.696;11.746;2022-09-01T09:32:50;3.25;;;2.95;;
71869;SDS011;59739;47.696;11.746;2022-09-01T09:35:30;3.85;;;3.10;;
71869;SDS011;59739;47.696;11.746;2022-09-01T09:43:55;3.13;;;2.80;;
71869;SDS011;59739;47.696;11.746;2022-09-01T09:49:14;2.60;;;2.40;;
71869;SDS011;59739;47.696;11.746;2022-09-01T09:51:56;3.63;;;2.58;;
71869;SDS011;59739;47.696;11.746;2022-09-01T09:54:35;3.08;;;2.80;;
71869;SDS011;59739;47.696;11.746;2022-09-01T09:57:12;2.60;;;2.40;;
71869;SDS011;59739;47.696;11.746;2022-09-01T10:02:26;3.28;;;3.00;;
71869;SDS011;59739;47.696;11.746;2022-09-01T10:05:25;4.07;;;2.70;;
71869;SDS011;59739;47.696;11.746;2022-09-01T10:08:01;3.13;;;2.60;;
71869;SDS011;59739;47.696;11.746;2022-09-01T10:13:26;4.40;;;3.78;;
71869;SDS011;59739;47.696;11.746;2022-09-01T10:15:54;4.00;;;3.05;;
71869;SDS011;59739;47.696;11.746;2022-09-01T10:18:35;3.88;;;3.30;;
71869;SDS011;59739;47.696;11.746;2022-09-01T10:23:46;2.85;;;2.58;;
71869;SDS011;59739;47.696;11.746;2022-09-01T10:29:35;3.13;;;2.70;;
71869;SDS011;59739;47.696;11.746;2022-09-01T10:31:59;3.85;;;3.10;;
71869;SDS011;59739;47.696;11.746;2022-09-01T10:34:31;3.05;;;2.75;;
71869;SDS011;59739;47.696;11.746;2022-09-01T10:37:09;3.00;;;2.70;;
71869;SDS011;59739;47.696;11.746;2022-09-01T10:42:44;3.00;;;2.70;;
71869;SDS011;59739;47.696;11.746;2022-09-01T10:50:46;4.83;;;3.90;;
71869;SDS011;59739;47.696;11.746;2022-09-01T10:56:09;3.50;;;3.20;;
71869;SDS011;59739;47.696;11.746;2022-09-01T11:06:55;3.58;;;3.28;;
71869;SDS011;59739;47.696;11.746;2022-09-01T11:12:23;4.00;;;3.35;;
71869;SDS011;59739;47.696;11.746;2022-09-01T11:20:22;3.55;;;2.97;;
71869;SDS011;59739;47.696;11.746;2022-09-01T11:26:01;3.58;;;3.28;;
71869;SDS011;59739;47.696;11.746;2022-09-01T11:28:59;3.65;;;3.35;;
71869;SDS011;59739;47.696;11.746;2022-09-01T11:31:29;4.03;;;3.67;;
71869;SDS011;59739;47.696;11.746;2022-09-01T11:34:08;3.80;;;3.50;;
71869;SDS011;59739;47.696;11.746;2022-09-01T11:41:53;3.70;;;3.40;;
71869;SDS011;59739;47.696;11.746;2022-09-01T11:47:27;3.67;;;3.38;;
71869;SDS011;59739;47.696;11.746;2022-09-01T11:50:01;4.45;;;3.80;;
71869;SDS011;59739;47.696;11.746;2022-09-01T11:52:33;4.13;;;3.28;;
71869;SDS011;59739;47.696;11.746;2022-09-01T11:55:03;3.70;;;3.40;;
71869;SDS011;59739;47.696;11.746;2022-09-01T11:57:38;3.63;;;3.33;;
71869;SDS011;59739;47.696;11.746;2022-09-01T12:00:09;3.90;;;3.33;;
71869;SDS011;59739;47.696;11.746;2022-09-01T12:02:46;4.57;;;3.55;;
71869;SDS011;59739;47.696;11.746;2022-09-01T12:07:54;3.65;;;3.30;;
71869;SDS011;59739;47.696;11.746;2022-09-01T12:10:32;4.32;;;4.00;;
71869;SDS011;59739;47.696;11.746;2022-09-01T12:15:51;3.50;;;3.20;;
71869;SDS011;59739;47.696;11.746;2022-09-01T12:18:24;3.60;;;3.30;;
71869;SDS011;59739;47.696;11.746;2022-09-01T12:20:54;4.28;;;3.30;;
71869;SDS011;59739;47.696;11.746;2022-09-01T12:23:30;5.40;;;4.50;;
71869;SDS011;59739;47.696;11.746;2022-09-01T12:26:08;4.78;;;4.32;;
71869;SDS011;59739;47.696;11.746;2022-09-01T12:28:38;6.13;;;4.00;;
71869;SDS011;59739;47.696;11.746;2022-09-01T12:31:12;4.60;;;4.20;;
71869;SDS011;59739;47.696;11.746;2022-09-01T12:33:51;4.68;;;4.28;;
71869;SDS011;59739;47.696;11.746;2022-09-01T12:36:29;4.32;;;3.92;;
71869;SDS011;59739;47.696;11.746;2022-09-01T12:42:03;5.72;;;4.20;;
71869;SDS011;59739;47.696;11.746;2022-09-01T12:44:42;6.72;;;4.30;;
71869;SDS011;59739;47.696;11.746;2022-09-01T12:47:17;4.33;;;4.00;;
71869;SDS011;59739;47.696;11.746;2022-09-01T12:50:08;4.70;;;4.30;;
71869;SDS011;59739;47.696;11.746;2022-09-01T12:52:48;7.38;;;4.18;;
71869;SDS011;59739;47.696;11.746;2022-09-01T12:55:18;4.88;;;4.30;;
71869;SDS011;59739;47.696;11.746;2022-09-01T12:57:51;5.00;;;3.97;;
71869;SDS011;59739;47.696;11.746;2022-09-01T13:00:20;5.00;;;4.10;;
71869;SDS011;59739;47.696;11.746;2022-09-01T13:07:53;4.40;;;4.00;;
71869;SDS011;59739;47.696;11.746;2022-09-01T13:10:21;4.68;;;4.18;;
71869;SDS011;59739;47.696;11.746;2022-09-01T13:12:52;4.60;;;3.75;;
71869;SDS011;59739;47.696;11.746;2022-09-01T13:15:20;3.90;;;3.60;;
71869;SDS011;59739;47.696;11.746;2022-09-01T13:17:46;5.22;;;4.30;;
71869;SDS011;59739;47.696;11.746;2022-09-01T13:20:12;3.80;;;3.50;;
71869;SDS011;59739;47.696;11.746;2022-09-01T13:22:39;5.38;;;4.20;;
71869;SDS011;59739;47.696;11.746;2022-09-01T13:25:07;3.88;;;3.58;;
71869;SDS011;59739;47.696;11.746;2022-09-01T13:27:35;4.47;;;4.07;;
71869;SDS011;59739;47.696;11.746;2022-09-01T13:30:04;4.15;;;3.78;;
71869;SDS011;59739;47.696;11.746;2022-09-01T13:32:31;4.10;;;3.70;;
71869;SDS011;59739;47.696;11.746;2022-09-01T13:34:57;3.47;;;3.25;;
71869;SDS011;59739;47.696;11.746;2022-09-01T13:37:23;3.50;;;3.00;;
71869;SDS011;59739;47.696;11.746;2022-09-01T13:39:49;4.45;;;3.67;;
71869;SDS011;59739;47.696;11.746;2022-09-01T13:42:15;5.22;;;3.53;;
71869;SDS011;59739;47.696;11.746;2022-09-01T13:44:42;3.50;;;3.20;;
71869;SDS011;59739;47.696;11.746;2022-09-01T13:47:09;4.30;;;3.90;;
71869;SDS011;59739;47.696;11.746;2022-09-01T13:49:35;3.63;;;3.33;;
71869;SDS011;59739;47.696;11.746;2022-09-01T13:52:01;3.17;;;2.92;;
71869;SDS011;59739;47.696;11.746;2022-09-01T13:54:27;4.10;;;3.28;;
71869;SDS011;59739;47.696;11.746;2022-09-01T13:56:53;4.30;;;3.90;;
71869;SDS011;59739;47.696;11.746;2022-09-01T13:59:19;3.55;;;3.25;;
71869;SDS011;59739;47.696;11.746;2022-09-01T14:01:45;3.80;;;3.50;;
71869;SDS011;59739;47.696;11.746;2022-09-01T14:04:11;3.72;;;3.42;;
71869;SDS011;59739;47.696;11.746;2022-09-01T14:06:40;3.55;;;3.25;;
71869;SDS011;59739;47.696;11.746;2022-09-01T14:09:11;3.33;;;3.00;;
71869;SDS011;59739;47.696;11.746;2022-09-01T14:11:39;4.03;;;3.72;;
71869;SDS011;59739;47.696;11.746;2022-09-01T14:14:05;4.38;;;3.60;;
71869;SDS011;59739;47.696;11.746;2022-09-01T14:16:31;3.10;;;2.78;;
71869;SDS011;59739;47.696;11.746;2022-09-01T14:18:57;3.35;;;2.35;;
71869;SDS011;59739;47.696;11.746;2022-09-01T14:21:24;3.10;;;2.72;;
71869;SDS011;59739;47.696;11.746;2022-09-01T14:23:50;3.60;;;3.30;;
71869;SDS011;59739;47.696;11.746;2022-09-01T14:26:16;3.42;;;3.13;;
71869;SDS011;59739;47.696;11.746;2022-09-01T14:28:43;3.55;;;3.10;;
71869;SDS011;59739;47.696;11.746;2022-09-01T14:31:12;2.70;;;2.50;;
71869;SDS011;59739;47.696;11.746;2022-09-01T14:33:42;3.05;;;2.80;;
71869;SDS011;59739;47.696;11.746;2022-09-01T14:36:15;3.42;;;3.13;;
71869;SDS011;59739;47.696;11.746;2022-09-01T14:38:47;4.18;;;3.28;;
71869;SDS011;59739;47.696;11.746;2022-09-01T14:41:16;2.90;;;2.70;;
71869;SDS011;59739;47.696;11.746;2022-09-01T14:43:47;3.28;;;2.97;;
71869;SDS011;59739;47.696;11.746;2022-09-01T14:46:16;3.15;;;2.95;;
71869;SDS011;59739;47.696;11.746;2022-09-01T14:48:44;3.35;;;3.05;;
71869;SDS011;59739;47.696;11.746;2022-09-01T14:51:22;3.50;;;3.08;;
71869;SDS011;59739;47.696;11.746;2022-09-01T14:53:52;3.28;;;2.88;;
71869;SDS011;59739;47.696;11.746;2022-09-01T14:56:18;4.07;;;3.15;;
71869;SDS011;59739;47.696;11.746;2022-09-01T14:58:45;3.30;;;3.05;;
71869;SDS011;59739;47.696;11.746;2022-09-01T15:01:13;3.05;;;2.75;;
71869;SDS011;59739;47.696;11.746;2022-09-01T15:03:42;2.70;;;2.50;;
71869;SDS011;59739;47.696;11.746;2022-09-01T15:06:14;2.60;;;2.40;;
71869;SDS011;59739;47.696;11.746;2022-09-01T15:08:42;4.53;;;2.78;;
71869;SDS011;59739;47.696;11.746;2022-09-01T15:11:09;3.00;;;2.70;;
71869;SDS011;59739;47.696;11.746;2022-09-01T15:13:37;3.40;;;3.10;;
71869;SDS011;59739;47.696;11.746;2022-09-01T15:16:05;2.97;;;2.78;;
71869;SDS011;59739;47.696;11.746;2022-09-01T15:18:40;4.45;;;2.95;;
71869;SDS011;59739;47.696;11.746;2022-09-01T15:21:06;2.85;;;2.65;;
71869;SDS011;59739;47.696;11.746;2022-09-01T15:23:33;2.72;;;2.33;;
71869;SDS011;59739;47.696;11.746;2022-09-01T15:25:59;3.42;;;2.97;;
71869;SDS011;59739;47.696;11.746;2022-09-01T15:28:25;4.10;;;3.25;;
71869;SDS011;59739;47.696;11.746;2022-09-01T15:30:52;3.50;;;3.20;;
71869;SDS011;59739;47.696;11.746;2022-09-01T15:33:20;3.58;;;3.25;;
71869;SDS011;59739;47.696;11.746;2022-09-01T15:35:47;3.47;;;3.10;;
71869;SDS011;59739;47.696;11.746;2022-09-01T15:38:13;2.97;;;2.70;;
71869;SDS011;59739;47.696;11.746;2022-09-01T15:40:42;3.78;;;3.30;;
71869;SDS011;59739;47.696;11.746;2022-09-01T15:43:09;3.30;;;3.00;;
71869;SDS011;59739;47.696;11.746;2022-09-01T15:45:35;3.22;;;2.92;;
71869;SDS011;59739;47.696;11.746;2022-09-01T15:48:03;3.13;;;2.58;;
71869;SDS011;59739;47.696;11.746;2022-09-01T15:50:29;3.33;;;3.03;;
71869;SDS011;59739;47.696;11.746;2022-09-01T15:52:56;2.80;;;2.47;;
71869;SDS011;59739;47.696;11.746;2022-09-01T15:55:42;2.60;;;2.40;;
71869;SDS011;59739;47.696;11.746;2022-09-01T15:58:12;2.45;;;2.25;;
71869;SDS011;59739;47.696;11.746;2022-09-01T16:00:41;2.55;;;2.35;;
71869;SDS011;59739;47.696;11.746;2022-09-01T16:03:08;3.22;;;2.92;;
71869;SDS011;59739;47.696;11.746;2022-09-01T16:05:36;3.55;;;2.80;;
71869;SDS011;59739;47.696;11.746;2022-09-01T16:08:04;4.88;;;3.00;;
71869;SDS011;59739;47.696;11.746;2022-09-01T16:10:34;3.00;;;2.70;;
71869;SDS011;59739;47.696;11.746;2022-09-01T16:13:04;2.50;;;2.30;;
71869;SDS011;59739;47.696;11.746;2022-09-01T16:15:35;2.87;;;2.67;;
71869;SDS011;59739;47.696;11.746;2022-09-01T16:18:16;3.20;;;2.90;;
71869;SDS011;59739;47.696;11.746;2022-09-01T16:21:21;3.10;;;2.45;;
71869;SDS011;59739;47.696;11.746;2022-09-01T16:23:54;2.92;;;2.63;;
71869;SDS011;59739;47.696;11.746;2022-09-01T16:26:21;2.97;;;2.72;;
71869;SDS011;59739;47.696;11.746;2022-09-01T16:28:55;2.88;;;2.60;;
71869;SDS011;59739;47.696;11.746;2022-09-01T16:31:23;3.03;;;2.83;;